Time;durP1;ratioP1;P1;durP2;ratioP2;P2;SDS_P1;SDS_P2;PMS_P1;PMS_P2;Temp;Humidity;BMP_temperature;BMP_pressure;BME280_temperature;BME280_humidity;BME280_pressure;Samples;Min_cycle;Max_cycle;Signal;HPM_P1;HPM_P2
2022/03/12 00:00:35;;;;;;;8.30;7.00;;;10.00;39.20;;;;;;5024151;28;20936;-41
2022/03/12 00:03:01;;;;;;;11.03;6.50;;;10.00;39.20;;;;;;5027536;28;20512;-40
2022/03/12 00:05:29;;;;;;;8.43;6.87;;;10.20;39.30;;;;;;5027965;28;20471;-41
2022/03/12 00:07:55;;;;;;;8.57;6.67;;;10.10;39.40;;;;;;5027927;28;20448;-42
2022/03/12 00:10:23;;;;;;;8.17;6.87;;;10.30;39.40;;;;;;5018856;28;20438;-41
2022/03/12 00:12:50;;;;;;;7.07;6.20;;;10.10;39.30;;;;;;5025767;28;20420;-41
2022/03/12 00:15:15;;;;;;;8.20;6.40;;;10.30;39.40;;;;;;5026859;28;20943;-41
2022/03/12 00:17:46;;;;;;;12.40;7.70;;;10.40;39.60;;;;;;5028827;28;20512;-41
2022/03/12 00:20:18;;;;;;;7.30;6.37;;;10.10;39.20;;;;;;5042473;28;20182;-41
2022/03/12 00:22:47;;;;;;;8.40;6.87;;;10.10;39.50;;;;;;5040377;28;20421;-40
2022/03/12 00:25:21;;;;;;;9.60;6.77;;;10.10;39.50;;;;;;5024515;28;20438;-41
2022/03/12 00:27:50;;;;;;;10.13;6.63;;;10.00;39.20;;;;;;5019756;28;20472;-43
2022/03/12 00:30:22;;;;;;;9.53;6.37;;;10.20;39.50;;;;;;5026616;28;20451;-41
2022/03/12 00:32:48;;;;;;;6.60;5.90;;;10.30;39.80;;;;;;5016453;28;20731;-41
2022/03/12 00:35:15;;;;;;;7.70;6.77;;;10.00;39.50;;;;;;5006476;28;20453;-41
2022/03/12 00:37:40;;;;;;;9.30;7.23;;;9.90;40.10;;;;;;5019756;28;20453;-40
2022/03/12 00:40:07;;;;;;;10.77;6.70;;;10.30;39.50;;;;;;5024361;28;22397;-42
2022/03/12 00:42:32;;;;;;;9.53;7.47;;;10.30;40.00;;;;;;5022149;28;20175;-41
2022/03/12 00:44:59;;;;;;;8.77;7.50;;;10.40;39.80;;;;;;5028016;28;20455;-41
2022/03/12 00:47:26;;;;;;;8.80;6.77;;;10.10;39.80;;;;;;5028060;28;20190;-41
2022/03/12 00:49:53;;;;;;;8.60;6.70;;;10.10;39.70;;;;;;5039464;28;20429;-41
2022/03/12 00:52:19;;;;;;;8.00;6.60;;;10.10;39.90;;;;;;5047800;28;20543;-41
2022/03/12 00:54:45;;;;;;;10.53;6.20;;;10.00;39.80;;;;;;5046709;28;20769;-40
2022/03/12 00:57:12;;;;;;;9.87;6.90;;;10.30;39.90;;;;;;5017724;28;20479;-41
2022/03/12 00:59:39;;;;;;;8.73;6.77;;;10.10;40.00;;;;;;5027402;28;20186;-38
2022/03/12 01:02:05;;;;;;;8.90;6.93;;;10.20;39.80;;;;;;5027841;28;20421;-42
2022/03/12 01:04:32;;;;;;;9.20;6.87;;;10.10;40.00;;;;;;5027593;28;20722;-42
2022/03/12 01:06:58;;;;;;;11.80;6.67;;;10.00;40.20;;;;;;5026693;28;20432;-40
2022/03/12 01:09:23;;;;;;;8.93;6.50;;;9.90;40.80;;;;;;5026542;28;20504;-40
2022/03/12 01:11:49;;;;;;;7.80;6.97;;;10.00;39.70;;;;;;5017814;28;20194;-40
2022/03/12 01:14:15;;;;;;;8.03;6.60;;;10.00;39.70;;;;;;5027362;28;20197;-41
2022/03/12 01:16:41;;;;;;;8.90;7.10;;;10.00;40.00;;;;;;5026549;28;20620;-41
2022/03/12 01:19:07;;;;;;;10.50;6.97;;;10.00;40.10;;;;;;5027059;28;20428;-41
2022/03/12 01:21:33;;;;;;;7.57;6.80;;;10.10;40.10;;;;;;5039679;28;20438;-40
2022/03/12 01:23:59;;;;;;;10.47;7.90;;;10.00;40.50;;;;;;5026194;28;20428;-41
2022/03/12 01:26:25;;;;;;;9.37;6.43;;;10.10;40.20;;;;;;5016185;28;20211;-41
2022/03/12 01:28:52;;;;;;;10.30;7.20;;;9.90;41.20;;;;;;5025762;28;20441;-42
2022/03/12 01:31:18;;;;;;;9.53;7.47;;;10.00;40.50;;;;;;5027039;28;20490;-41
2022/03/12 01:33:45;;;;;;;8.87;7.13;;;10.00;40.40;;;;;;5027051;28;20986;-41
2022/03/12 01:36:12;;;;;;;8.23;6.80;;;9.90;41.30;;;;;;5027530;28;20413;-41
2022/03/12 01:38:58;;;;;;;9.80;6.40;;;9.80;41.40;;;;;;5027497;28;20529;-41
2022/03/12 01:41:27;;;;;;;8.80;6.47;;;9.90;41.50;;;;;;5018886;28;20460;-41
2022/03/12 01:43:54;;;;;;;11.07;7.50;;;9.90;41.50;;;;;;5025844;28;20456;-42
2022/03/12 01:46:55;;;;;;;10.53;7.30;;;9.90;41.70;;;;;;5025611;28;20418;-40
2022/03/12 01:49:23;;;;;;;10.77;7.10;;;9.80;42.40;;;;;;5024255;28;20426;-42
2022/03/12 01:51:52;;;;;;;13.10;7.27;;;9.80;41.90;;;;;;5018630;28;20461;-40
2022/03/12 01:54:23;;;;;;;8.03;7.23;;;9.90;42.00;;;;;;5027193;28;20422;-41
2022/03/12 01:56:49;;;;;;;8.67;6.97;;;9.70;42.00;;;;;;5017107;28;20563;-41
2022/03/12 01:59:16;;;;;;;8.00;6.80;;;10.10;41.40;;;;;;5026981;28;20417;-43
2022/03/12 02:01:42;;;;;;;8.00;7.20;;;9.70;41.80;;;;;;5026367;28;20512;-41
2022/03/12 02:04:08;;;;;;;8.43;7.27;;;9.60;41.90;;;;;;5027404;28;20496;-38
2022/03/12 02:06:35;;;;;;;7.00;6.13;;;9.90;42.10;;;;;;5027837;28;20436;-40
2022/03/12 02:09:00;;;;;;;8.70;6.93;;;9.80;42.00;;;;;;5027336;28;20427;-41
2022/03/12 02:11:28;;;;;;;11.30;7.47;;;9.70;42.00;;;;;;5017720;28;20517;-42
2022/03/12 02:14:07;;;;;;;11.23;6.70;;;9.80;42.80;;;;;;5025562;28;20656;-41
2022/03/12 02:16:34;;;;;;;9.10;6.90;;;9.70;42.20;;;;;;5026734;28;20417;-41
2022/03/12 02:19:01;;;;;;;9.97;6.80;;;9.80;42.40;;;;;;5042381;28;20516;-43
2022/03/12 02:21:53;;;;;;;8.30;7.37;;;9.60;42.40;;;;;;5025173;28;20939;-40
2022/03/12 02:24:20;;;;;;;9.73;7.00;;;9.60;42.50;;;;;;5014620;28;20425;-40
2022/03/12 02:26:47;;;;;;;11.93;7.43;;;9.60;42.70;;;;;;5019160;28;20564;-41
2022/03/12 02:29:19;;;;;;;13.43;7.50;;;9.60;42.60;;;;;;5027307;28;20788;-41
2022/03/12 02:32:01;;;;;;;10.10;7.47;;;9.60;42.90;;;;;;5026979;28;20470;-40
2022/03/12 02:34:39;;;;;;;9.63;8.03;;;9.60;43.00;;;;;;5030583;28;20424;-41
2022/03/12 02:37:06;;;;;;;8.03;6.83;;;9.60;43.20;;;;;;5017944;28;20463;-42
2022/03/12 02:39:34;;;;;;;9.17;6.87;;;9.60;43.30;;;;;;5030563;28;20478;-38
2022/03/12 02:42:00;;;;;;;8.70;7.20;;;9.60;43.50;;;;;;5019365;28;20486;-40
2022/03/12 02:44:28;;;;;;;10.50;7.83;;;9.50;43.00;;;;;;5025327;28;20975;-40
2022/03/12 02:47:14;;;;;;;11.53;7.60;;;9.50;43.30;;;;;;5030705;28;20519;-41
2022/03/12 02:49:58;;;;;;;9.47;7.30;;;9.60;43.40;;;;;;5029807;28;21043;-40
2022/03/12 02:52:27;;;;;;;9.70;7.57;;;9.50;43.40;;;;;;5030290;28;20458;-41
2022/03/12 02:54:55;;;;;;;9.73;7.43;;;9.60;43.60;;;;;;5030304;28;20440;-40
2022/03/12 02:57:24;;;;;;;8.00;6.93;;;9.50;43.50;;;;;;5017494;28;20696;-41
2022/03/12 02:59:52;;;;;;;13.57;7.40;;;9.60;43.70;;;;;;5029396;28;20447;-40
2022/03/12 03:02:25;;;;;;;10.37;8.50;;;9.50;43.60;;;;;;5029037;28;20421;-40
2022/03/12 03:04:51;;;;;;;9.07;7.47;;;9.70;44.40;;;;;;5030043;28;20427;-40
2022/03/12 03:07:18;;;;;;;8.37;7.43;;;9.60;43.90;;;;;;5030063;28;20433;-40
2022/03/12 03:09:43;;;;;;;12.90;7.20;;;9.70;43.90;;;;;;5027742;28;20424;-40
2022/03/12 03:12:10;;;;;;;10.97;8.57;;;9.60;43.90;;;;;;5019842;28;21083;-40
2022/03/12 03:14:46;;;;;;;10.83;7.37;;;9.50;44.10;;;;;;5026296;28;20191;-40
2022/03/12 03:17:12;;;;;;;8.60;7.00;;;9.80;44.60;;;;;;5026989;28;20467;-41
2022/03/12 03:19:39;;;;;;;11.13;8.10;;;9.50;44.80;;;;;;5029296;28;20421;-42
2022/03/12 03:22:06;;;;;;;10.67;7.50;;;9.60;44.80;;;;;;5032927;28;20185;-41
2022/03/12 03:24:34;;;;;;;8.57;7.30;;;9.70;44.80;;;;;;5047866;28;20499;-41
2022/03/12 03:27:01;;;;;;;8.70;7.80;;;9.60;45.00;;;;;;5030193;28;20516;-42
2022/03/12 03:29:29;;;;;;;7.90;7.00;;;9.50;45.00;;;;;;5006763;28;20429;-41
2022/03/12 03:31:56;;;;;;;11.13;8.47;;;9.70;45.20;;;;;;5027795;28;20413;-41
2022/03/12 03:34:23;;;;;;;9.23;7.63;;;9.50;45.70;;;;;;5029458;28;20438;-41
2022/03/12 03:36:50;;;;;;;12.13;7.70;;;9.80;45.80;;;;;;5027722;28;20475;-41
2022/03/12 03:39:16;;;;;;;9.33;7.10;;;9.60;45.50;;;;;;5028103;28;20425;-41
2022/03/12 03:41:43;;;;;;;9.70;8.07;;;9.50;45.60;;;;;;5022386;28;20537;-42
2022/03/12 03:44:09;;;;;;;9.77;7.53;;;9.50;46.00;;;;;;5024889;28;20409;-38
2022/03/12 03:46:35;;;;;;;10.50;8.10;;;9.40;46.20;;;;;;5028935;28;20859;-42
2022/03/12 03:49:03;;;;;;;12.03;7.50;;;9.50;46.30;;;;;;5029377;28;20493;-41
2022/03/12 03:51:29;;;;;;;10.77;8.30;;;9.40;46.10;;;;;;5028823;28;20965;-38
2022/03/12 03:53:55;;;;;;;12.53;8.40;;;9.40;46.50;;;;;;5029210;28;20487;-42
2022/03/12 03:56:21;;;;;;;11.23;8.07;;;9.50;46.40;;;;;;5043638;28;20439;-40
2022/03/12 03:58:47;;;;;;;9.83;7.60;;;9.50;46.70;;;;;;5034883;28;20182;-40
2022/03/12 04:01:18;;;;;;;10.20;8.80;;;9.50;47.00;;;;;;5028088;28;20428;-41
2022/03/12 04:03:47;;;;;;;10.20;7.67;;;9.50;47.10;;;;;;5028747;28;20483;-40
2022/03/12 04:06:18;;;;;;;11.60;7.77;;;9.60;47.40;;;;;;5028650;28;20432;-40
2022/03/12 04:08:44;;;;;;;11.50;7.93;;;9.50;47.40;;;;;;5029072;28;20491;-43
2022/03/12 04:11:18;;;;;;;9.63;7.17;;;9.50;47.30;;;;;;5028061;28;20437;-40
2022/03/12 04:13:45;;;;;;;10.70;8.13;;;9.60;47.50;;;;;;5022972;28;20461;-40
2022/03/12 04:16:13;;;;;;;9.17;7.23;;;9.50;47.50;;;;;;5028756;28;20523;-40
2022/03/12 04:18:45;;;;;;;11.40;7.27;;;9.50;47.80;;;;;;5028448;28;20456;-41
2022/03/12 04:21:13;;;;;;;10.37;7.10;;;9.50;47.70;;;;;;5028177;28;20425;-41
2022/03/12 04:23:39;;;;;;;10.80;8.33;;;9.40;47.80;;;;;;5044715;28;20441;-40
2022/03/12 04:26:05;;;;;;;11.37;7.93;;;9.40;47.80;;;;;;5047717;28;20420;-42
2022/03/12 04:28:32;;;;;;;12.43;7.30;;;9.40;48.10;;;;;;5020622;28;20436;-40
2022/03/12 04:31:02;;;;;;;9.63;7.97;;;9.30;48.30;;;;;;5027545;28;20195;-41
2022/03/12 04:33:29;;;;;;;9.17;7.67;;;9.40;48.80;;;;;;5028157;28;20421;-40
2022/03/12 04:35:56;;;;;;;9.53;7.70;;;9.40;49.00;;;;;;5027081;28;20507;-40
2022/03/12 04:38:22;;;;;;;9.80;7.43;;;9.40;49.20;;;;;;5028264;28;20461;-41
2022/03/12 04:40:49;;;;;;;13.03;7.67;;;9.30;49.40;;;;;;5027784;28;20413;-41
2022/03/12 04:43:14;;;;;;;10.77;8.20;;;9.30;49.70;;;;;;5018423;28;20460;-40
2022/03/12 04:45:44;;;;;;;11.00;8.43;;;9.30;49.60;;;;;;5028469;28;20947;-42
2022/03/12 04:48:15;;;;;;;10.33;7.97;;;9.40;49.90;;;;;;5026687;28;20214;-40
2022/03/12 04:50:41;;;;;;;9.90;7.40;;;9.50;49.90;;;;;;5026216;28;20437;-41
2022/03/12 04:53:08;;;;;;;9.03;8.13;;;9.30;50.00;;;;;;5028073;28;20499;-41
2022/03/12 04:55:36;;;;;;;10.00;7.93;;;9.50;50.00;;;;;;5027361;28;20807;-41
2022/03/12 04:58:07;;;;;;;8.40;7.27;;;9.50;50.20;;;;;;5018699;28;20557;-40
2022/03/12 05:00:38;;;;;;;10.83;8.37;;;9.30;50.00;;;;;;5022795;28;20931;-41
2022/03/12 05:03:18;;;;;;;10.57;7.77;;;9.50;50.40;;;;;;5025991;28;20806;-42
2022/03/12 05:05:46;;;;;;;9.00;7.20;;;9.50;50.30;;;;;;5027674;28;20436;-40
2022/03/12 05:08:20;;;;;;;9.77;7.33;;;9.50;50.60;;;;;;5028246;28;20433;-41
2022/03/12 05:10:51;;;;;;;9.90;7.10;;;9.50;50.40;;;;;;5027198;28;20421;-41
2022/03/12 05:13:25;;;;;;;10.90;8.00;;;9.30;50.40;;;;;;5015140;28;21022;-41
2022/03/12 05:15:59;;;;;;;10.10;7.90;;;9.10;50.40;;;;;;5025515;28;20421;-41
2022/03/12 05:18:25;;;;;;;10.80;7.57;;;9.30;50.70;;;;;;5026353;28;20492;-41
2022/03/12 05:20:52;;;;;;;9.00;7.40;;;9.20;50.70;;;;;;5026634;28;20444;-41
2022/03/12 05:23:18;;;;;;;10.10;6.97;;;9.10;50.90;;;;;;5040542;28;21004;-41
2022/03/12 05:25:47;;;;;;;8.90;7.97;;;9.30;51.20;;;;;;5045849;28;20412;-41
2022/03/12 05:28:18;;;;;;;11.20;7.40;;;9.10;51.20;;;;;;5025983;28;20438;-39
2022/03/12 05:30:45;;;;;;;9.40;7.70;;;9.20;51.70;;;;;;5025216;28;20945;-40
2022/03/12 05:33:12;;;;;;;11.90;7.67;;;9.50;52.00;;;;;;5026091;28;20461;-41
2022/03/12 05:35:41;;;;;;;12.07;8.73;;;9.20;52.00;;;;;;5027108;28;20508;-41
2022/03/12 05:38:08;;;;;;;11.63;8.13;;;9.40;52.40;;;;;;5027463;28;20459;-40
2022/03/12 05:40:38;;;;;;;8.87;7.73;;;9.30;52.70;;;;;;5026807;28;20440;-41
2022/03/12 05:43:09;;;;;;;12.53;7.10;;;9.30;52.80;;;;;;5019371;28;20471;-38
2022/03/12 05:45:35;;;;;;;11.30;7.47;;;9.40;53.30;;;;;;5022249;28;20417;-41
2022/03/12 05:48:01;;;;;;;12.90;8.90;;;9.30;53.40;;;;;;5025483;28;20807;-41
2022/03/12 05:50:27;;;;;;;9.87;8.63;;;9.30;53.40;;;;;;5026640;28;20425;-42
2022/03/12 05:52:54;;;;;;;11.07;8.17;;;9.30;53.70;;;;;;5027085;28;20182;-42
2022/03/12 05:55:23;;;;;;;10.53;7.90;;;9.40;54.00;;;;;;5027416;28;20417;-40
2022/03/12 05:57:50;;;;;;;10.43;7.70;;;9.30;54.50;;;;;;5021934;28;20461;-41
2022/03/12 06:00:17;;;;;;;8.50;7.57;;;9.20;54.80;;;;;;5021910;28;20421;-40
2022/03/12 06:02:52;;;;;;;12.03;8.17;;;9.20;55.00;;;;;;5026655;28;20972;-40
2022/03/12 06:05:24;;;;;;;11.53;8.40;;;9.30;55.60;;;;;;5027365;28;20425;-38
2022/03/12 06:07:50;;;;;;;11.63;8.53;;;9.10;55.50;;;;;;5029668;28;20457;-41
2022/03/12 06:10:32;;;;;;;11.13;7.90;;;9.20;56.00;;;;;;5030725;28;20420;-39
2022/03/12 06:12:58;;;;;;;10.33;8.43;;;9.30;56.50;;;;;;5025551;28;20437;-39
2022/03/12 06:15:27;;;;;;;10.10;7.87;;;9.00;56.70;;;;;;5027182;28;20441;-43
2022/03/12 06:17:54;;;;;;;9.03;6.97;;;9.10;57.20;;;;;;5030679;28;20465;-40
2022/03/12 06:20:21;;;;;;;11.10;7.33;;;9.10;57.80;;;;;;5029076;28;20429;-40
2022/03/12 06:22:49;;;;;;;12.67;8.17;;;9.00;58.30;;;;;;5039518;28;20424;-40
2022/03/12 06:25:16;;;;;;;10.17;8.00;;;8.90;58.90;;;;;;5031182;28;20482;-40
2022/03/12 06:27:43;;;;;;;10.50;7.57;;;8.90;59.30;;;;;;5045240;28;20433;-40
2022/03/12 06:30:11;;;;;;;10.63;8.30;;;9.10;59.70;;;;;;5022723;28;20421;-41
2022/03/12 06:32:38;;;;;;;9.47;8.20;;;8.80;59.80;;;;;;5030728;28;20514;-41
2022/03/12 06:35:06;;;;;;;10.20;7.50;;;8.80;60.20;;;;;;5030793;28;20444;-41
2022/03/12 06:37:32;;;;;;;9.53;7.23;;;8.90;61.00;;;;;;5031194;28;20809;-41
2022/03/12 06:39:58;;;;;;;10.10;7.50;;;9.00;61.10;;;;;;5009014;28;20938;-41
2022/03/12 06:42:27;;;;;;;10.93;7.53;;;9.10;61.90;;;;;;5026142;28;20421;-42
2022/03/12 06:44:56;;;;;;;10.30;7.17;;;8.90;62.30;;;;;;5041934;28;20433;-42
2022/03/12 06:47:32;;;;;;;9.33;7.73;;;9.00;63.00;;;;;;5030571;28;20421;-44
2022/03/12 06:49:59;;;;;;;9.40;7.97;;;9.30;63.60;;;;;;5029696;28;20428;-41
2022/03/12 06:52:27;;;;;;;8.70;7.20;;;9.20;64.80;;;;;;5016281;28;20517;-41
2022/03/12 06:54:53;;;;;;;10.23;7.67;;;9.00;63.90;;;;;;5030468;28;20447;-40
2022/03/12 06:57:20;;;;;;;12.57;8.00;;;9.10;64.70;;;;;;5030145;28;20486;-41
2022/03/12 06:59:45;;;;;;;9.73;7.73;;;9.20;65.50;;;;;;5018694;28;20436;-41
2022/03/12 07:02:11;;;;;;;8.03;7.23;;;9.10;66.10;;;;;;5030097;28;20421;-40
2022/03/12 07:04:37;;;;;;;8.07;7.10;;;9.10;66.70;;;;;;5030052;28;20274;-40
2022/03/12 07:07:03;;;;;;;8.90;7.27;;;9.20;67.40;;;;;;5029681;28;20429;-43
2022/03/12 07:09:29;;;;;;;12.23;8.10;;;9.30;68.00;;;;;;5029168;28;20190;-40
2022/03/12 07:11:58;;;;;;;9.93;7.73;;;9.10;68.10;;;;;;5026366;28;20464;-41
2022/03/12 07:14:25;;;;;;;9.30;7.30;;;9.20;68.90;;;;;;5020505;28;20847;-40
2022/03/12 07:16:52;;;;;;;10.13;8.47;;;9.30;69.50;;;;;;5031689;28;20971;-41
2022/03/12 07:19:18;;;;;;;10.33;7.33;;;9.70;69.80;;;;;;5028629;28;20695;-42
2022/03/12 07:21:44;;;;;;;10.33;6.83;;;9.70;70.00;;;;;;5027683;28;20786;-40
2022/03/12 07:24:10;;;;;;;9.23;8.17;;;9.60;70.00;;;;;;5015915;28;20769;-42
2022/03/12 07:26:37;;;;;;;8.37;7.40;;;9.70;69.90;;;;;;5029546;28;20522;-42
2022/03/12 07:29:03;;;;;;;9.30;7.83;;;9.80;70.60;;;;;;5023912;28;20528;-41
2022/03/12 07:31:28;;;;;;;10.20;7.80;;;9.90;71.40;;;;;;5028789;28;20960;-41
2022/03/12 07:33:54;;;;;;;7.60;6.60;;;10.00;70.70;;;;;;5029500;28;20261;-40
2022/03/12 07:36:19;;;;;;;9.10;7.70;;;10.00;71.20;;;;;;5028028;28;20304;-40
2022/03/12 07:38:45;;;;;;;11.67;7.50;;;9.90;72.80;;;;;;5028219;28;20299;-40
2022/03/12 07:41:12;;;;;;;13.53;7.20;;;10.10;72.10;;;;;;5027405;28;20182;-41
2022/03/12 07:43:38;;;;;;;10.30;8.20;;;10.20;72.70;;;;;;5020474;28;20269;-43
2022/03/12 07:46:04;;;;;;;10.63;7.50;;;9.90;74.00;;;;;;5022504;28;20445;-41
2022/03/12 07:48:29;;;;;;;8.83;7.57;;;10.40;74.40;;;;;;5029210;28;20277;-40
2022/03/12 07:50:56;;;;;;;9.07;7.50;;;10.10;73.90;;;;;;5027101;28;20638;-40
2022/03/12 07:53:21;;;;;;;12.00;7.40;;;10.20;75.10;;;;;;5026654;28;20273;-40
2022/03/12 07:55:48;;;;;;;9.10;7.00;;;10.50;75.50;;;;;;5023629;28;20524;-41
2022/03/12 07:58:15;;;;;;;11.13;7.27;;;10.60;75.40;;;;;;5025595;28;20685;-42
2022/03/12 08:00:41;;;;;;;9.17;7.50;;;10.80;74.40;;;;;;5026898;28;20421;-41
2022/03/12 08:03:07;;;;;;;8.20;6.37;;;10.80;74.40;;;;;;5029296;28;20786;-40
2022/03/12 08:05:32;;;;;;;10.90;7.90;;;11.00;73.70;;;;;;5029213;28;20198;-41
2022/03/12 08:08:00;;;;;;;10.07;7.50;;;11.00;74.30;;;;;;5028647;28;20448;-41
2022/03/12 08:10:26;;;;;;;10.03;8.00;;;10.80;74.70;;;;;;5029281;28;20190;-41
2022/03/12 08:12:52;;;;;;;11.30;7.23;;;10.70;75.90;;;;;;5028447;28;20425;-41
2022/03/12 08:15:19;;;;;;;9.87;8.00;;;10.50;77.70;;;;;;5020094;28;20417;-43
2022/03/12 08:17:46;;;;;;;9.73;7.20;;;10.60;77.90;;;;;;5028985;28;20198;-41
2022/03/12 08:20:12;;;;;;;8.80;6.80;;;10.60;78.10;;;;;;5026508;28;20803;-41
2022/03/12 08:22:41;;;;;;;8.30;7.17;;;10.80;79.20;;;;;;5037435;28;20424;-43
2022/03/12 08:25:08;;;;;;;11.70;7.13;;;10.90;79.90;;;;;;5040958;28;20409;-41
2022/03/12 08:27:35;;;;;;;10.50;7.83;;;10.90;80.00;;;;;;5028099;28;20425;-40
2022/03/12 08:30:03;;;;;;;10.93;7.50;;;11.00;80.60;;;;;;5021913;28;20528;-41
2022/03/12 08:32:28;;;;;;;9.93;7.50;;;11.10;81.60;;;;;;5025185;28;20483;-41
2022/03/12 08:34:57;;;;;;;8.93;6.80;;;11.40;82.00;;;;;;5020914;28;20437;-42
2022/03/12 08:37:23;;;;;;;10.20;7.90;;;11.40;82.30;;;;;;5026713;28;20206;-41
2022/03/12 08:39:49;;;;;;;11.73;8.20;;;11.50;82.50;;;;;;5027436;28;20428;-41
2022/03/12 08:42:15;;;;;;;9.13;6.90;;;11.80;83.10;;;;;;5028007;28;20441;-42
2022/03/12 08:44:40;;;;;;;9.47;8.27;;;11.50;82.20;;;;;;5018836;28;20194;-40
2022/03/12 08:47:06;;;;;;;8.60;6.90;;;11.80;83.10;;;;;;5026216;28;20183;-40
2022/03/12 08:49:32;;;;;;;8.63;7.67;;;11.90;83.00;;;;;;5027145;28;20282;-41
2022/03/12 08:51:58;;;;;;;8.50;7.27;;;12.20;83.90;;;;;;5024629;28;20540;-42
2022/03/12 08:54:24;;;;;;;11.60;7.50;;;12.10;83.40;;;;;;5026821;28;20550;-43
2022/03/12 08:56:51;;;;;;;7.97;7.20;;;12.20;84.10;;;;;;5042155;28;20999;-41
2022/03/12 08:59:17;;;;;;;9.90;8.30;;;12.30;83.20;;;;;;5023336;28;20430;-40
2022/03/12 09:01:45;;;;;;;10.47;8.50;;;12.40;82.90;;;;;;5021620;28;20187;-41
2022/03/12 09:04:10;;;;;;;8.53;7.00;;;12.60;83.60;;;;;;5027212;28;20939;-41
2022/03/12 09:06:36;;;;;;;8.53;7.67;;;12.70;81.10;;;;;;5026433;28;20440;-42
2022/03/12 09:09:03;;;;;;;9.27;7.37;;;12.90;80.40;;;;;;5027719;28;20217;-41
2022/03/12 09:11:28;;;;;;;8.43;7.50;;;13.00;79.20;;;;;;5025653;28;20194;-40
2022/03/12 09:13:54;;;;;;;9.67;7.80;;;13.00;79.20;;;;;;5022235;28;20429;-40
2022/03/12 09:16:21;;;;;;;8.50;7.70;;;12.90;80.30;;;;;;5021497;28;20554;-41
2022/03/12 09:18:46;;;;;;;8.57;7.27;;;13.00;79.50;;;;;;5027418;28;20628;-41
2022/03/12 09:21:12;;;;;;;9.40;7.80;;;13.00;80.10;;;;;;5026883;28;20424;-39
2022/03/12 09:23:38;;;;;;;8.10;7.00;;;13.10;79.90;;;;;;5031443;28;20178;-39
2022/03/12 09:26:05;;;;;;;8.60;6.90;;;13.30;79.90;;;;;;5033443;28;20193;-44
2022/03/12 09:28:31;;;;;;;10.50;7.33;;;13.40;79.10;;;;;;5023701;28;20209;-42
2022/03/12 09:30:57;;;;;;;9.67;8.30;;;13.40;78.90;;;;;;5019186;28;20439;-41
2022/03/12 09:33:23;;;;;;;10.37;7.20;;;13.40;78.60;;;;;;5027290;28;20511;-40
2022/03/12 09:35:50;;;;;;;8.50;6.80;;;13.30;79.00;;;;;;5027219;28;20213;-40
2022/03/12 09:38:16;;;;;;;11.70;8.50;;;13.40;79.20;;;;;;5027339;28;20855;-40
2022/03/12 09:40:43;;;;;;;10.30;7.57;;;13.60;79.60;;;;;;5041480;28;20941;-40
2022/03/12 09:43:10;;;;;;;10.00;7.83;;;13.80;79.20;;;;;;5027281;28;20504;-42
2022/03/12 09:45:35;;;;;;;8.63;6.80;;;14.00;77.60;;;;;;5010122;28;20430;-40
2022/03/12 09:48:01;;;;;;;8.57;6.63;;;14.00;76.10;;;;;;5026811;28;20450;-42
2022/03/12 09:50:27;;;;;;;9.40;7.23;;;14.00;76.60;;;;;;5024618;28;20186;-42
2022/03/12 09:52:53;;;;;;;10.50;7.50;;;14.20;77.40;;;;;;5027414;28;20186;-41
2022/03/12 09:55:19;;;;;;;9.87;7.60;;;14.20;75.20;;;;;;5025951;28;20421;-41
2022/03/12 09:57:48;;;;;;;9.83;7.60;;;14.20;75.20;;;;;;5026771;28;20217;-42
2022/03/12 10:00:15;;;;;;;8.33;7.43;;;14.30;75.30;;;;;;5018070;28;20504;-41
2022/03/12 10:02:41;;;;;;;7.73;6.90;;;14.40;75.10;;;;;;5026490;28;20417;-40
2022/03/12 10:05:11;;;;;;;8.67;7.30;;;14.60;74.00;;;;;;5025884;28;20817;-40
2022/03/12 10:07:37;;;;;;;8.13;7.33;;;14.60;74.10;;;;;;5027099;28;20800;-44
2022/03/12 10:10:03;;;;;;;11.23;7.37;;;14.60;75.00;;;;;;5026639;28;20756;-42
2022/03/12 10:12:29;;;;;;;8.10;7.30;;;14.50;75.80;;;;;;5025320;28;20437;-40
2022/03/12 10:14:55;;;;;;;8.40;7.50;;;14.50;77.00;;;;;;5016419;28;21037;-43
2022/03/12 10:17:20;;;;;;;8.67;7.37;;;14.70;76.40;;;;;;5024208;28;20229;-44
2022/03/12 10:19:46;;;;;;;8.30;6.93;;;14.80;76.80;;;;;;5025163;28;20563;-39
2022/03/12 10:22:13;;;;;;;9.90;7.60;;;14.90;75.80;;;;;;5030259;28;20251;-40
2022/03/12 10:24:40;;;;;;;8.37;7.23;;;15.00;76.00;;;;;;5037205;28;20503;-39
2022/03/12 10:27:06;;;;;;;8.53;6.93;;;15.10;75.40;;;;;;5046443;28;20486;-41
2022/03/12 10:29:35;;;;;;;7.87;7.00;;;15.30;75.70;;;;;;5032020;28;20438;-41
2022/03/12 10:32:25;;;;;;;8.57;6.43;;;15.40;75.00;;;;;;5017680;28;20662;-38
2022/03/12 10:34:53;;;;;;;9.40;7.40;;;15.50;76.30;;;;;;5018986;28;20424;-40
2022/03/12 10:37:31;;;;;;;7.37;6.67;;;15.40;75.30;;;;;;5022284;28;20499;-40
2022/03/12 10:40:03;;;;;;;8.00;6.30;;;15.30;76.10;;;;;;5020933;28;20448;-39
2022/03/12 10:42:31;;;;;;;10.50;7.20;;;15.30;76.60;;;;;;5026725;28;20514;-39
2022/03/12 10:45:09;;;;;;;8.03;6.40;;;15.40;76.60;;;;;;5018226;28;20480;-39
2022/03/12 10:47:47;;;;;;;8.10;7.00;;;15.70;77.30;;;;;;5020230;28;20959;-39
2022/03/12 10:50:15;;;;;;;8.10;7.20;;;15.60;75.60;;;;;;5023182;28;20421;-38
2022/03/12 10:52:46;;;;;;;9.20;7.63;;;15.80;75.80;;;;;;5026983;28;20474;-39
2022/03/12 10:55:36;;;;;;;8.30;7.07;;;15.90;74.60;;;;;;5030205;28;20428;-39
2022/03/12 10:58:05;;;;;;;7.87;7.07;;;16.00;74.10;;;;;;5028979;28;20907;-39
2022/03/12 11:00:35;;;;;;;7.97;7.17;;;16.00;73.90;;;;;;5018405;28;20461;-40
2022/03/12 11:03:03;;;;;;;8.67;7.20;;;16.10;73.40;;;;;;5029849;28;20413;-38
2022/03/12 11:05:34;;;;;;;8.97;7.50;;;15.90;72.40;;;;;;5030368;28;20525;-39
2022/03/12 11:08:18;;;;;;;8.63;7.73;;;15.60;73.10;;;;;;5029761;28;20530;-40
2022/03/12 11:11:00;;;;;;;8.63;7.73;;;15.30;74.00;;;;;;5029244;28;20714;-42
2022/03/12 11:13:39;;;;;;;8.53;7.63;;;15.40;75.50;;;;;;5029882;28;20992;-40
2022/03/12 11:16:20;;;;;;;8.73;7.70;;;15.40;73.90;;;;;;5023016;28;20939;-42
2022/03/12 11:18:56;;;;;;;9.53;8.00;;;15.30;75.10;;;;;;5027013;28;20468;-40
2022/03/12 11:21:50;;;;;;;8.57;7.67;;;15.40;74.90;;;;;;5029002;28;20515;-39
2022/03/12 11:24:24;;;;;;;8.90;8.00;;;15.50;75.70;;;;;;5022967;28;20440;-41
2022/03/12 11:27:05;;;;;;;10.43;8.50;;;15.60;74.50;;;;;;5029713;28;20420;-41
2022/03/12 11:29:31;;;;;;;8.70;7.33;;;15.60;73.90;;;;;;5024083;28;20425;-39
2022/03/12 11:31:58;;;;;;;9.70;8.40;;;15.60;74.40;;;;;;5024485;28;20911;-40
2022/03/12 11:34:32;;;;;;;7.93;7.13;;;15.50;74.30;;;;;;5028152;28;20205;-40
2022/03/12 11:37:05;;;;;;;7.53;6.73;;;15.60;75.70;;;;;;5027953;28;20460;-42
2022/03/12 11:39:33;;;;;;;9.37;8.37;;;15.80;74.40;;;;;;5029217;28;20894;-45
2022/03/12 11:42:15;;;;;;;12.90;7.50;;;15.60;73.80;;;;;;5027900;28;20429;-42
2022/03/12 11:44:52;;;;;;;8.00;7.13;;;15.70;74.70;;;;;;5024575;28;20469;-40
2022/03/12 11:47:33;;;;;;;8.37;7.57;;;15.50;73.90;;;;;;5019605;28;20455;-42
2022/03/12 11:50:01;;;;;;;11.87;8.60;;;15.50;74.80;;;;;;5020995;28;20433;-38
2022/03/12 11:52:27;;;;;;;7.80;6.77;;;15.50;74.80;;;;;;5028271;28;20950;-39
2022/03/12 11:54:56;;;;;;;8.87;7.97;;;15.60;74.40;;;;;;5028552;28;20987;-41
2022/03/12 11:57:27;;;;;;;9.50;8.03;;;15.70;74.90;;;;;;5028898;28;20476;-40
2022/03/12 11:59:53;;;;;;;9.17;8.17;;;15.70;74.70;;;;;;5023112;28;20438;-39
2022/03/12 12:02:33;;;;;;;8.13;7.33;;;15.80;75.10;;;;;;5024193;28;20422;-39
2022/03/12 12:05:10;;;;;;;9.47;7.63;;;16.00;73.90;;;;;;5027450;28;20798;-41
2022/03/12 12:07:39;;;;;;;9.00;8.10;;;16.00;73.60;;;;;;5029084;28;20439;-39
2022/03/12 12:10:11;;;;;;;10.00;7.43;;;15.80;74.50;;;;;;5028211;28;20422;-39
2022/03/12 12:12:37;;;;;;;8.50;7.60;;;15.70;74.10;;;;;;5027552;28;20881;-39
2022/03/12 12:15:13;;;;;;;10.73;8.37;;;15.70;74.10;;;;;;5024659;28;20939;-39
2022/03/12 12:17:39;;;;;;;8.77;7.93;;;15.70;75.40;;;;;;5024974;28;20492;-41
2022/03/12 12:20:06;;;;;;;8.17;7.27;;;15.70;75.20;;;;;;5027750;28;20421;-40
2022/03/12 12:22:32;;;;;;;9.30;7.90;;;15.70;75.20;;;;;;5036526;28;20439;-39
2022/03/12 12:25:02;;;;;;;9.13;6.93;;;15.80;76.30;;;;;;5044168;28;20428;-42
2022/03/12 12:27:50;;;;;;;9.63;7.67;;;15.90;75.70;;;;;;5048529;28;20197;-42
2022/03/12 12:30:39;;;;;;;12.00;8.30;;;15.90;74.40;;;;;;5034481;28;20434;-40
2022/03/12 12:33:19;;;;;;;8.50;7.63;;;15.90;75.10;;;;;;5028302;28;20413;-41
2022/03/12 12:35:50;;;;;;;8.33;7.30;;;15.90;74.20;;;;;;5027191;28;20421;-38
2022/03/12 12:38:20;;;;;;;8.50;7.57;;;15.90;76.30;;;;;;5027789;28;20457;-39
2022/03/12 12:40:47;;;;;;;8.63;7.80;;;15.90;74.40;;;;;;5027585;28;20951;-39
2022/03/12 12:43:19;;;;;;;9.10;7.53;;;15.70;74.20;;;;;;5028195;28;20417;-44
2022/03/12 12:45:53;;;;;;;10.40;8.20;;;15.50;74.60;;;;;;5018499;28;20483;-41
2022/03/12 12:48:48;;;;;;;8.10;7.30;;;15.50;75.70;;;;;;5027924;28;20409;-40
2022/03/12 12:51:26;;;;;;;8.10;6.90;;;15.40;76.10;;;;;;5027507;28;20923;-39
2022/03/12 12:53:54;;;;;;;8.00;7.20;;;15.30;76.20;;;;;;5028014;28;20436;-39
2022/03/12 12:56:37;;;;;;;8.23;7.20;;;15.30;76.10;;;;;;5027873;28;20536;-40